TimePDT,TemperatureF,Dew PointF,Humidity,Sea Level PressureIn,VisibilityMPH,Wind Direction,Wind SpeedMPH,Gust SpeedMPH,PrecipitationIn,Events,Conditions,WindDirDegrees,DateUTC
12:56 AM,51.1,36.0,56,30.04,10.0,Calm,Calm,-,N/A,,Clear,0,2013-08-04 07:56:00
2:56 AM,48.9,34.0,56,30.04,10.0,Calm,Calm,-,N/A,,Clear,0,2013-08-04 09:56:00
3:56 AM,48.9,35.1,59,30.03,10.0,Calm,Calm,-,N/A,,Clear,0,2013-08-04 10:56:00
4:56 AM,46.0,35.1,66,30.04,10.0,Calm,Calm,-,N/A,,Clear,0,2013-08-04 11:56:00
5:56 AM,46.9,35.1,63,30.05,10.0,Calm,Calm,-,N/A,,Clear,0,2013-08-04 12:56:00
6:56 AM,48.0,36.0,63,30.06,10.0,Calm,Calm,-,N/A,,Clear,0,2013-08-04 13:56:00
7:56 AM,57.9,43.0,58,30.07,10.0,Calm,Calm,-,N/A,,Clear,0,2013-08-04 14:56:00
8:56 AM,68.0,44.1,42,30.06,10.0,Calm,Calm,-,N/A,,Clear,0,2013-08-04 15:56:00
9:56 AM,75.0,46.0,36,30.04,10.0,Calm,Calm,-,N/A,,Clear,0,2013-08-04 16:56:00
10:56 AM,80.1,37.0,21,30.04,10.0,Calm,Calm,-,N/A,,Clear,0,2013-08-04 17:56:00
11:56 AM,82.9,39.9,22,30.03,10.0,Calm,Calm,-,N/A,,Clear,0,2013-08-04 18:56:00
12:56 PM,84.9,30.0,14,30.03,10.0,Variable,3.5,-,N/A,,Clear,0,2013-08-04 19:56:00
1:56 PM,84.9,33.1,16,30.02,10.0,Calm,Calm,-,N/A,,Clear,0,2013-08-04 20:56:00
2:56 PM,88.0,33.1,14,30.00,10.0,Variable,3.5,-,N/A,,Clear,0,2013-08-04 21:56:00
3:56 PM,86.0,35.1,16,30.00,10.0,Calm,Calm,-,N/A,,Clear,0,2013-08-04 22:56:00
4:56 PM,86.0,32.0,14,29.99,10.0,Variable,3.5,-,N/A,,Clear,0,2013-08-04 23:56:00
5:56 PM,82.0,30.0,15,29.99,10.0,Calm,Calm,-,N/A,,Clear,0,2013-08-05 00:56:00
6:56 PM,79.0,32.0,18,29.99,10.0,Calm,Calm,-,N/A,,Clear,0,2013-08-05 01:56:00
7:56 PM,75.0,34.0,22,29.99,10.0,Calm,Calm,-,N/A,,Clear,0,2013-08-05 02:56:00
8:56 PM,64.0,36.0,35,30.01,10.0,Calm,Calm,-,N/A,,Clear,0,2013-08-05 03:56:00
9:56 PM,60.1,37.0,42,30.03,10.0,Calm,Calm,-,N/A,,Clear,0,2013-08-05 04:56:00
10:56 PM,55.9,36.0,47,30.05,10.0,Calm,Calm,-,N/A,,Clear,0,2013-08-05 05:56:00
11:56 PM,55.0,36.0,49,30.05,10.0,Calm,Calm,-,N/A,,Clear,0,2013-08-05 06:56:00